createdAt,value
2018-10-06T00:00:06.938Z,100547.86
2018-10-06T00:02:36.546Z,100548.80
2018-10-06T00:05:05.770Z,100538.78
2018-10-06T00:07:34.348Z,100540.09
2018-10-06T00:10:03.007Z,100536.55
2018-10-06T00:12:31.516Z,100529.94
2018-10-06T00:15:00.121Z,100526.34
2018-10-06T00:17:28.798Z,100528.81
2018-10-06T00:19:59.078Z,100523.16
2018-10-06T00:22:28.546Z,100473.91
2018-10-06T00:24:57.074Z,100531.28
2018-10-06T00:27:27.446Z,100522.81
2018-10-06T00:29:56.502Z,100518.84
2018-10-06T00:32:25.496Z,100508.45
2018-10-06T00:34:54.014Z,100517.44
2018-10-06T00:37:22.678Z,100506.36
2018-10-06T00:39:51.286Z,100508.65
2018-10-06T00:42:19.934Z,100513.16
2018-10-06T00:44:48.568Z,100508.28
2018-10-06T00:47:17.155Z,100490.33
2018-10-06T00:49:45.974Z,100490.61
2018-10-06T00:52:14.541Z,100494.20
2018-10-06T00:54:43.268Z,100486.53
2018-10-06T00:57:11.814Z,100490.70
2018-10-06T00:59:40.398Z,100499.58
2018-10-06T01:02:09.037Z,100495.98
2018-10-06T01:04:37.527Z,100495.98
2018-10-06T01:07:06.382Z,100489.55
2018-10-06T01:09:34.863Z,100489.55
2018-10-06T01:12:03.659Z,100487.14
2018-10-06T01:14:32.227Z,100494.11
2018-10-06T01:17:00.855Z,100499.77
2018-10-06T01:19:29.370Z,100497.53
2018-10-06T01:21:57.950Z,100501.00
2018-10-06T01:24:26.640Z,100502.59
2018-10-06T01:26:55.186Z,100513.16
2018-10-06T01:29:24.065Z,100504.69
2018-10-06T01:31:52.538Z,100516.58
2018-10-06T01:34:21.274Z,100516.95
2018-10-06T01:36:49.978Z,100516.95
2018-10-06T01:39:18.742Z,100507.24
2018-10-06T01:41:47.254Z,100505.05
2018-10-06T01:44:15.779Z,100495.98
2018-10-06T01:46:44.504Z,100500.63
2018-10-06T01:49:12.986Z,100498.71
2018-10-06T01:51:41.843Z,100437.47
2018-10-06T01:54:10.345Z,100493.34
2018-10-06T01:56:39.180Z,100491.65
2018-10-06T01:59:08.074Z,100488.55
2018-10-06T02:01:36.585Z,100485.99
2018-10-06T02:04:05.182Z,100482.02
2018-10-06T02:06:33.712Z,100479.38
2018-10-06T02:09:02.618Z,100467.86
2018-10-06T02:11:31.138Z,100458.33
2018-10-06T02:13:59.991Z,100404.29
2018-10-06T02:16:28.553Z,100454.83
2018-10-06T02:18:57.240Z,100458.80
2018-10-06T02:21:25.782Z,100449.55
2018-10-06T02:23:54.365Z,100452.19
2018-10-06T02:26:23.010Z,100446.90
2018-10-06T02:28:51.607Z,100440.84
2018-10-06T02:31:20.387Z,100449.72
2018-10-06T02:33:48.895Z,100441.59
2018-10-06T02:36:17.651Z,100349.61
2018-10-06T02:38:46.202Z,100457.36
2018-10-06T02:41:14.847Z,100466.70
2018-10-06T02:43:44.400Z,100462.73
2018-10-06T02:46:12.955Z,100465.38
2018-10-06T02:48:41.486Z,100468.39
2018-10-06T02:51:10.042Z,100475.95
2018-10-06T02:53:38.926Z,100474.22
2018-10-06T02:56:07.679Z,100481.77
2018-10-06T02:58:36.721Z,100481.77
2018-10-06T03:01:05.210Z,100481.77
2018-10-06T03:03:33.739Z,100480.45
2018-10-06T03:06:02.294Z,100467.24
2018-10-06T03:08:30.895Z,100455.35
2018-10-06T03:10:59.444Z,100455.35
2018-10-06T03:13:28.073Z,100456.30
2018-10-06T03:15:57.082Z,100376.67
2018-10-06T03:18:25.649Z,100461.77
2018-10-06T03:20:54.734Z,100458.25
2018-10-06T03:23:23.222Z,100461.36
2018-10-06T03:25:51.846Z,100454.75
2018-10-06T03:28:20.446Z,100462.77
2018-10-06T03:30:49.239Z,100467.59
2018-10-06T03:33:17.785Z,100408.92
2018-10-06T03:35:46.417Z,100475.14
2018-10-06T03:38:15.186Z,100483.98
2018-10-06T03:40:43.689Z,100473.05
2018-10-06T03:43:12.453Z,100421.58
2018-10-06T03:45:40.942Z,100467.77
2018-10-06T03:48:09.694Z,100470.41
2018-10-06T03:50:38.366Z,100470.03
2018-10-06T03:53:07.177Z,100460.79
2018-10-06T03:55:35.826Z,100460.38
2018-10-06T03:58:04.458Z,100451.72
2018-10-06T04:00:33.299Z,100452.45
2018-10-06T04:03:02.070Z,100446.34
2018-10-06T04:05:31.145Z,100449.81
2018-10-06T04:07:59.638Z,100454.73
2018-10-06T04:10:28.345Z,100463.02
2018-10-06T04:12:57.190Z,100464.75
2018-10-06T04:15:25.806Z,100459.47
2018-10-06T04:17:54.335Z,100454.55
2018-10-06T04:20:22.921Z,100453.23
2018-10-06T04:22:51.734Z,100441.89
2018-10-06T04:25:21.438Z,100438.33
2018-10-06T04:27:51.126Z,100420.84
2018-10-06T04:30:19.709Z,100422.48
2018-10-06T04:32:48.732Z,100418.52
2018-10-06T04:35:17.269Z,100421.53
2018-10-06T04:37:46.343Z,100419.67
2018-10-06T04:40:14.902Z,100422.31
2018-10-06T04:42:44.150Z,100417.94
2018-10-06T04:45:12.902Z,100422.48
2018-10-06T04:47:41.482Z,100421.71
2018-10-06T04:50:10.251Z,100312.92
2018-10-06T04:52:38.791Z,100417.64
2018-10-06T04:55:07.819Z,100430.16
2018-10-06T04:57:36.488Z,100433.92
2018-10-06T05:00:05.328Z,100440.32
2018-10-06T05:02:33.835Z,100424.65
2018-10-06T05:05:02.421Z,100421.61
2018-10-06T05:07:30.963Z,100422.92
2018-10-06T05:09:59.446Z,100434.06
2018-10-06T05:12:28.442Z,100418.94
2018-10-06T05:14:57.067Z,100420.42
2018-10-06T05:17:25.957Z,100416.09
2018-10-06T05:19:54.518Z,100415.91
2018-10-06T05:22:23.256Z,100423.17
2018-10-06T05:24:51.994Z,100425.20
2018-10-06T05:27:20.670Z,100418.98
2018-10-06T05:29:49.283Z,100420.88
2018-10-06T05:32:17.826Z,100418.48
2018-10-06T05:34:46.738Z,100416.47
2018-10-06T05:37:15.295Z,100408.89
2018-10-06T05:39:44.367Z,100407.08
2018-10-06T05:42:13.035Z,100424.07
2018-10-06T05:44:41.574Z,100426.66
2018-10-06T05:47:10.249Z,100430.78
2018-10-06T05:49:38.822Z,100427.77
2018-10-06T05:52:07.679Z,100417.92
2018-10-06T05:54:36.220Z,100416.98
2018-10-06T05:57:05.298Z,100424.23
2018-10-06T05:59:33.825Z,100433.91
2018-10-06T06:02:02.875Z,100445.48
2018-10-06T06:04:31.534Z,100440.67
2018-10-06T06:07:00.110Z,100431.44
2018-10-06T06:09:28.690Z,100421.67
2018-10-06T06:11:57.287Z,100434.08
2018-10-06T06:14:25.973Z,100349.06
2018-10-06T06:16:54.578Z,100430.49
2018-10-06T06:19:24.242Z,100427.11
2018-10-06T06:21:52.865Z,100424.47
2018-10-06T06:24:22.528Z,100358.81
2018-10-06T06:26:51.114Z,100419.03
2018-10-06T06:29:19.891Z,100412.65
2018-10-06T06:31:48.423Z,100416.90
2018-10-06T06:34:17.026Z,100425.13
2018-10-06T06:36:45.756Z,100433.42
2018-10-06T06:39:14.250Z,100429.84
2018-10-06T06:41:43.193Z,100383.25
2018-10-06T06:44:11.849Z,100429.30
2018-10-06T06:46:40.464Z,100434.78
2018-10-06T06:49:08.987Z,100434.63
2018-10-06T06:51:37.589Z,100438.41
2018-10-06T06:54:06.137Z,100430.74
2018-10-06T06:56:34.698Z,100442.82
2018-10-06T06:59:03.310Z,100453.67
2018-10-06T07:01:31.798Z,100459.07
2018-10-06T07:04:00.417Z,100454.95
2018-10-06T07:06:28.948Z,100449.04
2018-10-06T07:08:57.552Z,100450.48
2018-10-06T07:11:26.068Z,100445.03
2018-10-06T07:13:54.547Z,100447.59
2018-10-06T07:16:23.486Z,100445.51
2018-10-06T07:18:52.026Z,100450.08
2018-10-06T07:21:21.062Z,100388.16
2018-10-06T07:23:49.615Z,100450.88
2018-10-06T07:26:18.312Z,100453.55
2018-10-06T07:28:46.963Z,100446.61
2018-10-06T07:31:15.972Z,100435.69
2018-10-06T07:33:44.574Z,100429.28
2018-10-06T07:36:13.114Z,100425.42
2018-10-06T07:38:41.730Z,100339.62
2018-10-06T07:41:10.542Z,100427.63
2018-10-06T07:43:39.744Z,100383.59
2018-10-06T07:46:08.602Z,100434.84
2018-10-06T07:48:37.580Z,100434.03
2018-10-06T07:51:06.127Z,100429.62
2018-10-06T07:53:34.770Z,100419.42
2018-10-06T07:56:03.419Z,100423.34
2018-10-06T07:58:32.046Z,100429.09
2018-10-06T08:01:00.682Z,100388.47
2018-10-06T08:03:29.245Z,100437.42
2018-10-06T08:05:58.015Z,100344.63
2018-10-06T08:08:26.538Z,100437.05
2018-10-06T08:10:55.255Z,100429.03
2018-10-06T08:13:23.808Z,100426.84
2018-10-06T08:15:52.386Z,100423.09
2018-10-06T08:18:20.969Z,100426.19
2018-10-06T08:20:49.624Z,100426.30
2018-10-06T08:23:18.514Z,100445.01
2018-10-06T08:25:47.102Z,100449.06
2018-10-06T08:28:15.980Z,100404.45
2018-10-06T08:30:44.509Z,100452.20
2018-10-06T08:33:13.360Z,100451.08
2018-10-06T08:35:42.042Z,100442.00
2018-10-06T08:38:10.570Z,100445.89
2018-10-06T08:40:39.410Z,100443.50
2018-10-06T08:43:07.921Z,100457.88
2018-10-06T08:45:36.690Z,100432.71
2018-10-06T08:48:05.250Z,100454.23
2018-10-06T08:50:33.936Z,100458.80
2018-10-06T08:53:02.632Z,100454.03
2018-10-06T08:55:31.269Z,100459.16
2018-10-06T08:57:59.805Z,100465.78
2018-10-06T09:00:28.321Z,100462.18
2018-10-06T09:02:57.160Z,100463.31
2018-10-06T09:05:25.844Z,100466.16
2018-10-06T09:07:54.650Z,100463.04
2018-10-06T09:10:23.331Z,100466.26
2018-10-06T09:12:51.859Z,100460.75
2018-10-06T09:15:20.348Z,100458.03
2018-10-06T09:17:49.079Z,100464.46
2018-10-06T09:20:17.746Z,100446.11
2018-10-06T09:22:47.096Z,100459.14
2018-10-06T09:25:15.886Z,100458.41
2018-10-06T09:27:44.486Z,100461.62
2018-10-06T09:30:13.022Z,100461.79
2018-10-06T09:32:41.610Z,100466.53
2018-10-06T09:35:10.188Z,100461.59
2018-10-06T09:37:38.826Z,100467.66
2018-10-06T09:40:07.481Z,100466.50
2018-10-06T09:42:36.289Z,100459.68
2018-10-06T09:45:04.871Z,100456.66
2018-10-06T09:47:33.881Z,100459.22
2018-10-06T09:50:09.113Z,100457.89
2018-10-06T09:52:37.824Z,100462.12
2018-10-06T09:55:06.508Z,100460.91
2018-10-06T09:57:35.138Z,100462.73
2018-10-06T10:00:03.905Z,100468.41
2018-10-06T10:02:37.479Z,100463.52
2018-10-06T10:05:11.220Z,100470.30
2018-10-06T10:07:40.355Z,100476.08
2018-10-06T10:10:09.010Z,100475.78
2018-10-06T10:12:37.823Z,100482.20
2018-10-06T10:15:06.479Z,100481.27
2018-10-06T10:17:35.135Z,100487.90
2018-10-06T10:20:03.895Z,100486.00
2018-10-06T10:22:32.550Z,100485.81
2018-10-06T10:25:01.308Z,100500.01
2018-10-06T10:27:29.862Z,100498.00
2018-10-06T10:29:58.474Z,100491.68
2018-10-06T10:32:27.140Z,100383.19
2018-10-06T10:34:55.731Z,100486.91
2018-10-06T10:37:24.531Z,100497.52
2018-10-06T10:39:53.055Z,100496.30
2018-10-06T10:42:22.700Z,100490.33
2018-10-06T10:44:51.396Z,100482.18
2018-10-06T10:47:20.795Z,100478.41
2018-10-06T10:49:49.341Z,100479.33
2018-10-06T10:52:17.907Z,100337.08
2018-10-06T10:54:46.418Z,100476.65
2018-10-06T10:57:15.055Z,100467.73
2018-10-06T10:59:43.846Z,100359.30
2018-10-06T11:02:12.377Z,100461.22
2018-10-06T11:04:41.722Z,100460.45
2018-10-06T11:07:10.260Z,100452.36
2018-10-06T11:09:38.995Z,100448.24
2018-10-06T11:12:08.406Z,100436.45
2018-10-06T11:14:37.178Z,100443.03
2018-10-06T11:17:05.823Z,100447.51
2018-10-06T11:19:34.415Z,100442.75
2018-10-06T11:22:02.926Z,100434.24
2018-10-06T11:24:31.583Z,100438.19
2018-10-06T11:27:00.359Z,100432.89
2018-10-06T11:29:28.902Z,100429.59
2018-10-06T11:31:57.662Z,100429.91
2018-10-06T11:34:26.370Z,100424.59
2018-10-06T11:36:55.055Z,100417.20
2018-10-06T11:39:23.582Z,100407.13
2018-10-06T11:41:52.111Z,100414.45
2018-10-06T11:44:20.592Z,100409.72
2018-10-06T11:46:49.106Z,100406.92
2018-10-06T11:49:17.891Z,100414.98
2018-10-06T11:51:46.426Z,100410.90
2018-10-06T11:54:15.263Z,100319.70
2018-10-06T11:56:43.843Z,100404.80
2018-10-06T11:59:12.421Z,100405.27
2018-10-06T12:01:40.938Z,100396.02
2018-10-06T12:04:09.502Z,100389.45
2018-10-06T12:06:38.290Z,100390.42
2018-10-06T12:09:08.114Z,100395.70
2018-10-06T12:11:37.222Z,100396.34
2018-10-06T12:14:05.770Z,100397.99
2018-10-06T12:16:34.377Z,100393.69
2018-10-06T12:19:03.227Z,100386.55
2018-10-06T12:21:31.958Z,100394.41
2018-10-06T12:24:00.448Z,100393.47
2018-10-06T12:26:29.054Z,100396.56
2018-10-06T12:28:57.720Z,100397.95
2018-10-06T12:31:26.340Z,100400.00
2018-10-06T12:33:55.166Z,100397.34
2018-10-06T12:36:23.658Z,100390.28
2018-10-06T12:38:52.471Z,100393.47
2018-10-06T12:41:21.034Z,100393.63
2018-10-06T12:43:49.551Z,100400.08
2018-10-06T12:46:18.331Z,100403.88
2018-10-06T12:48:46.910Z,100391.33
2018-10-06T12:51:15.619Z,100390.53
2018-10-06T12:53:44.079Z,100394.55
2018-10-06T12:56:12.874Z,100292.20
2018-10-06T12:58:41.612Z,100380.36
2018-10-06T13:01:10.354Z,100372.40
2018-10-06T13:03:39.062Z,100373.20
2018-10-06T13:06:07.659Z,100376.95
2018-10-06T13:08:36.243Z,100378.15
2018-10-06T13:11:04.815Z,100381.02
2018-10-06T13:13:33.636Z,100370.07
2018-10-06T13:16:02.141Z,100368.55
2018-10-06T13:18:30.938Z,100345.05
2018-10-06T13:20:59.514Z,100377.11
2018-10-06T13:23:28.240Z,100363.16
2018-10-06T13:25:56.942Z,100360.87
2018-10-06T13:28:25.454Z,100351.36
2018-10-06T13:30:53.946Z,100365.52
2018-10-06T13:33:22.529Z,100371.38
2018-10-06T13:35:51.322Z,100370.88
2018-10-06T13:38:19.797Z,100374.14
2018-10-06T13:40:48.434Z,100381.78
2018-10-06T13:43:16.936Z,100382.75
2018-10-06T13:45:45.430Z,100379.95
2018-10-06T13:48:13.983Z,100380.42
2018-10-06T13:50:42.568Z,100382.75
2018-10-06T13:53:11.356Z,100385.62
2018-10-06T13:55:39.946Z,100384.25
2018-10-06T13:58:09.012Z,100384.21
2018-10-06T14:00:37.518Z,100381.59
2018-10-06T14:03:06.169Z,100389.46
2018-10-06T14:05:34.883Z,100392.01
2018-10-06T14:08:03.552Z,100393.95
2018-10-06T14:10:33.043Z,100387.97
2018-10-06T14:13:01.628Z,100382.77
2018-10-06T14:15:30.340Z,100379.36
2018-10-06T14:17:58.902Z,100377.34
2018-10-06T14:20:27.836Z,100367.02
2018-10-06T14:22:56.485Z,100368.23
2018-10-06T14:25:25.083Z,100363.20
2018-10-06T14:27:53.622Z,100350.69
2018-10-06T14:30:22.147Z,100366.42
2018-10-06T14:32:51.231Z,100356.63
2018-10-06T14:35:19.755Z,100347.17
2018-10-06T14:37:49.116Z,100294.09
2018-10-06T14:40:17.682Z,100337.74
2018-10-06T14:42:46.622Z,100333.72
2018-10-06T14:45:15.110Z,100341.88
2018-10-06T14:47:43.779Z,100340.92
2018-10-06T14:50:12.260Z,100333.33
2018-10-06T14:52:40.726Z,100336.69
2018-10-06T14:55:09.646Z,100332.20
2018-10-06T14:57:38.982Z,100317.47
2018-10-06T15:00:08.130Z,100327.33
2018-10-06T15:02:36.823Z,100336.66
2018-10-06T15:05:05.963Z,100324.23
2018-10-06T15:07:34.642Z,100316.88
2018-10-06T15:10:03.496Z,100320.25
2018-10-06T15:12:32.134Z,100327.84
2018-10-06T15:15:00.864Z,100318.41
2018-10-06T15:17:29.828Z,100287.30
2018-10-06T15:19:58.382Z,100325.97
2018-10-06T15:22:27.293Z,100326.77
2018-10-06T15:24:55.988Z,100323.94
2018-10-06T15:27:25.066Z,100322.45
2018-10-06T15:29:53.606Z,100327.59
2018-10-06T15:32:22.216Z,100322.86
2018-10-06T15:34:50.747Z,100314.75
2018-10-06T15:37:19.274Z,100314.95
2018-10-06T15:39:48.145Z,100317.41
2018-10-06T15:42:16.666Z,100335.43
2018-10-06T15:44:46.474Z,100346.79
2018-10-06T15:47:15.086Z,100349.73
2018-10-06T15:49:43.830Z,100351.76
2018-10-06T15:52:12.382Z,100352.52
2018-10-06T15:54:40.923Z,100353.28
2018-10-06T15:57:09.608Z,100346.48
2018-10-06T15:59:38.240Z,100345.00
2018-10-06T16:02:07.078Z,100346.88
2018-10-06T16:04:35.662Z,100347.27
2018-10-06T16:07:04.386Z,100338.03
2018-10-06T16:09:33.139Z,100317.78
2018-10-06T16:12:01.745Z,100311.77
2018-10-06T16:14:30.242Z,100311.95
2018-10-06T16:16:58.758Z,100309.51
2018-10-06T16:19:27.405Z,100296.63
2018-10-06T16:21:55.923Z,100298.52
2018-10-06T16:24:24.657Z,100295.50
2018-10-06T16:26:53.174Z,100303.27
2018-10-06T16:29:21.948Z,100320.27
2018-10-06T16:31:50.692Z,100324.06
2018-10-06T16:34:19.187Z,100323.50
2018-10-06T16:36:47.708Z,100329.06
2018-10-06T16:39:16.270Z,100332.76
2018-10-06T16:41:44.975Z,100335.22
2018-10-06T16:44:13.552Z,100336.92
2018-10-06T16:46:42.234Z,100331.05
2018-10-06T16:49:10.848Z,100333.89
2018-10-06T16:51:39.611Z,100341.64
2018-10-06T16:54:08.158Z,100344.11
2018-10-06T16:56:36.698Z,100347.86
2018-10-06T16:59:05.455Z,100345.80
2018-10-06T17:01:34.176Z,100346.53
2018-10-06T17:04:03.607Z,100346.72
2018-10-06T17:06:32.297Z,100346.05
2018-10-06T17:09:00.894Z,100343.67
2018-10-06T17:11:29.378Z,100344.81
2018-10-06T17:13:57.899Z,100352.92
2018-10-06T17:16:26.965Z,100353.11
2018-10-06T17:18:55.628Z,100361.12
2018-10-06T17:21:24.375Z,100359.16
2018-10-06T17:23:53.014Z,100360.66
2018-10-06T17:26:23.007Z,100366.86
2018-10-06T17:28:51.488Z,100370.91
2018-10-06T17:31:20.354Z,100377.23
2018-10-06T17:33:48.856Z,100374.31
2018-10-06T17:36:17.390Z,100375.32
2018-10-06T17:38:46.014Z,100373.63
2018-10-06T17:41:14.498Z,100370.22
2018-10-06T17:43:43.290Z,100371.72
2018-10-06T17:46:11.939Z,100366.23
2018-10-06T17:48:40.922Z,100372.56
2018-10-06T17:51:09.648Z,100366.59
2018-10-06T17:53:38.454Z,100375.47
2018-10-06T17:56:07.117Z,100379.98
2018-10-06T17:58:35.763Z,100384.98
2018-10-06T18:01:04.594Z,100393.36
2018-10-06T18:03:33.249Z,100396.75
2018-10-06T18:06:02.922Z,100402.40
2018-10-06T18:08:31.761Z,100397.58
2018-10-06T18:11:00.664Z,100412.02
2018-10-06T18:13:29.187Z,100409.95
2018-10-06T18:15:58.241Z,100410.33
2018-10-06T18:18:26.733Z,100415.44
2018-10-06T18:20:55.255Z,100414.68
2018-10-06T18:23:23.823Z,100414.05
2018-10-06T18:25:52.383Z,100413.59
2018-10-06T18:28:21.162Z,100429.44
2018-10-06T18:30:49.755Z,100421.86
2018-10-06T18:33:18.531Z,100428.31
2018-10-06T18:35:47.022Z,100430.22
2018-10-06T18:38:15.662Z,100433.72
2018-10-06T18:40:44.274Z,100424.92
2018-10-06T18:43:12.798Z,100451.23
2018-10-06T18:45:42.035Z,100449.33
2018-10-06T18:48:10.574Z,100447.64
2018-10-06T18:50:39.437Z,100449.67
2018-10-06T18:53:08.018Z,100444.90
2018-10-06T18:55:36.906Z,100461.05
2018-10-06T18:58:05.385Z,100461.09
2018-10-06T19:00:34.039Z,100448.17
2018-10-06T19:03:03.085Z,100444.19
2018-10-06T19:05:31.701Z,100450.91
2018-10-06T19:08:00.423Z,100450.28
2018-10-06T19:10:28.904Z,100465.08
2018-10-06T19:12:58.458Z,100464.78
2018-10-06T19:15:26.993Z,100467.81
2018-10-06T19:17:55.758Z,100454.59
2018-10-06T19:20:24.246Z,100462.19
2018-10-06T19:22:52.924Z,100473.21
2018-10-06T19:25:21.462Z,100481.75
2018-10-06T19:27:49.938Z,100486.64
2018-10-06T19:30:18.698Z,100363.13
2018-10-06T19:32:47.186Z,100481.52
2018-10-06T19:35:15.891Z,100482.05
2018-10-06T19:37:44.484Z,100487.11
2018-10-06T19:40:13.500Z,100496.94
2018-10-06T19:42:42.122Z,100495.69
2018-10-06T19:45:10.727Z,100492.68
2018-10-06T19:47:39.358Z,100501.64
2018-10-06T19:50:07.901Z,100504.99
2018-10-06T19:52:36.526Z,100461.56
2018-10-06T19:55:05.054Z,100499.23
2018-10-06T19:57:34.006Z,100515.05
2018-10-06T20:00:02.844Z,100513.34
2018-10-06T20:02:31.509Z,100509.92
2018-10-06T20:05:00.070Z,100511.02
2018-10-06T20:07:28.871Z,100510.22
2018-10-06T20:09:57.392Z,100508.15
2018-10-06T20:12:26.039Z,100510.30
2018-10-06T20:14:54.722Z,100509.31
2018-10-06T20:17:23.201Z,100516.81
2018-10-06T20:19:52.235Z,100518.27
2018-10-06T20:22:20.791Z,100523.61
2018-10-06T20:24:49.533Z,100530.83
2018-10-06T20:27:18.050Z,100527.41
2018-10-06T20:29:46.625Z,100530.56
2018-10-06T20:32:15.152Z,100519.66
2018-10-06T20:34:43.762Z,100528.49
2018-10-06T20:39:38.611Z,100531.13
2018-10-06T20:42:07.324Z,100531.27
2018-10-06T20:44:35.921Z,100532.59
2018-10-06T20:47:04.559Z,100537.06
2018-10-06T20:49:33.261Z,100534.95
2018-10-06T20:52:01.867Z,100532.80
2018-10-06T20:54:31.392Z,100530.62
2018-10-06T20:56:59.986Z,100527.99
2018-10-06T20:59:28.636Z,100535.03
2018-10-06T21:01:57.301Z,100525.81
2018-10-06T21:04:25.851Z,100530.25
2018-10-06T21:06:54.450Z,100524.42
2018-10-06T21:09:22.974Z,100535.89
2018-10-06T21:14:26.586Z,100542.09
2018-10-06T21:16:55.128Z,100538.14
2018-10-06T21:19:23.766Z,100536.83
2018-10-06T21:21:52.418Z,100532.08
2018-10-06T21:24:21.231Z,100535.17
2018-10-06T21:29:18.062Z,100537.20
2018-10-06T21:31:46.867Z,100491.78
2018-10-06T21:34:15.462Z,100537.59
2018-10-06T21:36:44.170Z,100535.09
2018-10-06T21:39:12.796Z,100532.88
2018-10-06T21:41:41.318Z,100534.58
2018-10-06T21:44:09.963Z,100526.67
2018-10-06T21:46:38.582Z,100527.05
2018-10-06T21:49:07.626Z,100529.69
2018-10-06T21:51:36.159Z,100533.41
2018-10-06T21:54:05.031Z,100530.77
2018-10-06T21:56:33.647Z,100530.77
2018-10-06T21:59:02.226Z,100533.78
2018-10-06T22:01:30.748Z,100533.41
2018-10-06T22:03:59.270Z,100531.78
2018-10-06T22:06:27.858Z,100535.31
2018-10-06T22:08:56.397Z,100540.69
2018-10-06T22:11:25.190Z,100538.95
2018-10-06T22:13:53.703Z,100535.42
2018-10-06T22:16:22.514Z,100535.87
2018-10-06T22:18:51.029Z,100538.58
2018-10-06T22:21:19.716Z,100541.59
2018-10-06T22:23:48.404Z,100538.05
2018-10-06T22:26:16.987Z,100537.19
2018-10-06T22:28:45.675Z,100531.05
2018-10-06T22:31:14.194Z,100534.25
2018-10-06T22:33:43.012Z,100536.47
2018-10-06T22:36:11.570Z,100533.98
2018-10-06T22:38:40.100Z,100540.97
2018-10-06T22:41:08.729Z,100545.83
2018-10-06T22:43:37.286Z,100534.53
2018-10-06T22:46:06.979Z,100537.16
2018-10-06T22:48:35.474Z,100535.92
2018-10-06T22:51:04.399Z,100535.20
2018-10-06T22:53:32.938Z,100537.03
2018-10-06T22:56:01.674Z,100526.62
2018-10-06T22:58:30.187Z,100527.03
2018-10-06T23:00:58.744Z,100536.23
2018-10-06T23:03:27.303Z,100533.61
2018-10-06T23:05:55.830Z,100527.69
2018-10-06T23:08:24.658Z,100531.87
2018-10-06T23:10:53.158Z,100532.89
2018-10-06T23:13:21.878Z,100530.33
2018-10-06T23:15:50.374Z,100520.15
2018-10-06T23:18:18.942Z,100521.63
2018-10-06T23:20:47.552Z,100526.00
2018-10-06T23:23:16.063Z,100525.20
2018-10-06T23:25:44.870Z,100481.19
2018-10-06T23:28:13.514Z,100527.04
2018-10-06T23:30:42.270Z,100528.05
2018-10-06T23:33:10.826Z,100524.62
2018-10-06T23:35:39.397Z,100529.88
2018-10-06T23:38:08.039Z,100521.16
2018-10-06T23:40:36.521Z,100525.17
2018-10-06T23:43:05.283Z,100525.55
2018-10-06T23:45:33.794Z,100530.75
2018-10-06T23:48:02.399Z,100525.48
2018-10-06T23:50:30.960Z,100531.68
2018-10-06T23:52:59.571Z,100529.05
2018-10-06T23:55:28.142Z,100532.20
2018-10-06T23:57:56.759Z,100522.20
